createdAt,value
2023-02-25T00:01:32.372Z,67.73
2023-02-25T00:03:59.604Z,67.69
2023-02-25T00:06:26.846Z,68.14
2023-02-25T00:08:54.331Z,67.55
2023-02-25T00:11:23.855Z,67.41
2023-02-25T00:13:51.043Z,67.52
2023-02-25T00:16:19.364Z,67.15
2023-02-25T00:18:46.986Z,67.51
2023-02-25T00:21:16.643Z,67.43
2023-02-25T00:23:47.656Z,67.23
2023-02-25T00:26:17.029Z,67.36
2023-02-25T00:28:44.506Z,68.52
2023-02-25T00:31:18.693Z,68.60
2023-02-25T00:33:45.628Z,68.44
2023-02-25T00:36:20.056Z,69.11
2023-02-25T00:38:48.555Z,69.20
2023-02-25T00:41:18.241Z,68.90
2023-02-25T00:43:51.630Z,69.59
2023-02-25T00:46:20.033Z,69.32
2023-02-25T00:48:46.975Z,69.34
2023-02-25T00:51:21.622Z,68.72
2023-02-25T00:53:48.677Z,69.18
2023-02-25T00:56:17.360Z,69.29
2023-02-25T00:58:45.516Z,69.92
2023-02-25T01:01:21.076Z,69.91
2023-02-25T01:03:49.340Z,69.32
2023-02-25T01:06:16.805Z,69.22
2023-02-25T01:08:44.311Z,69.65
2023-02-25T01:11:21.392Z,69.89
2023-02-25T01:13:49.858Z,70.05
2023-02-25T01:16:23.914Z,69.24
2023-02-25T01:18:56.293Z,68.46
2023-02-25T01:21:31.944Z,68.89
2023-02-25T01:24:12.279Z,68.75
2023-02-25T01:26:42.213Z,70.23
2023-02-25T01:29:12.830Z,69.24
2023-02-25T01:31:40.271Z,69.68
2023-02-25T01:34:10.757Z,70.32
2023-02-25T01:36:37.663Z,70.06
2023-02-25T01:39:05.524Z,69.76
2023-02-25T01:41:34.600Z,69.85
2023-02-25T01:44:30.011Z,69.73
2023-02-25T01:46:57.191Z,69.33
2023-02-25T01:49:45.025Z,69.75
2023-02-25T01:52:19.360Z,68.51
2023-02-25T01:54:49.247Z,68.29
2023-02-25T01:57:18.403Z,69.08
2023-02-25T01:59:47.091Z,68.98
2023-02-25T02:02:19.238Z,69.73
2023-02-25T02:04:51.179Z,69.15
2023-02-25T02:07:20.659Z,68.32
2023-02-25T02:09:56.411Z,69.37
2023-02-25T02:12:40.161Z,69.00
2023-02-25T02:15:11.806Z,68.72
2023-02-25T02:17:49.736Z,68.80
2023-02-25T02:20:20.618Z,70.02
2023-02-25T02:23:22.075Z,69.20
2023-02-25T02:25:57.596Z,69.52
2023-02-25T02:28:58.219Z,69.10
2023-02-25T02:32:02.692Z,68.68
2023-02-25T02:34:41.625Z,70.19
2023-02-25T02:37:28.766Z,69.36
2023-02-25T02:40:05.848Z,68.35
2023-02-25T02:42:40.897Z,68.58
2023-02-25T02:45:38.699Z,69.18
2023-02-25T02:48:34.136Z,68.46
2023-02-25T02:51:06.495Z,69.27
2023-02-25T02:53:41.155Z,69.02
2023-02-25T02:56:13.365Z,70.18
2023-02-25T02:59:05.803Z,70.03
2023-02-25T03:01:44.463Z,69.13
2023-02-25T03:04:18.145Z,69.46
2023-02-25T03:06:49.158Z,69.44
2023-02-25T03:09:22.876Z,68.95
2023-02-25T03:11:49.685Z,69.34
2023-02-25T03:14:16.640Z,69.02
2023-02-25T03:16:55.214Z,69.24
2023-02-25T03:19:31.527Z,68.96
2023-02-25T03:22:17.381Z,68.98
2023-02-25T03:24:54.499Z,68.91
2023-02-25T03:27:39.131Z,68.28
2023-02-25T03:30:25.738Z,68.45
2023-02-25T03:33:12.968Z,68.49
2023-02-25T03:35:42.476Z,69.40
2023-02-25T03:38:17.362Z,69.17
2023-02-25T03:40:47.467Z,68.91
2023-02-25T03:43:18.481Z,69.18
2023-02-25T03:45:45.666Z,69.22
2023-02-25T03:48:14.162Z,69.03
2023-02-25T03:50:52.005Z,68.77
2023-02-25T03:53:18.834Z,69.03
2023-02-25T03:55:46.767Z,68.71
2023-02-25T03:58:13.580Z,68.55
2023-02-25T04:00:42.828Z,68.81
2023-02-25T04:03:09.931Z,70.09
2023-02-25T04:05:37.545Z,69.27
2023-02-25T04:08:16.082Z,68.95
2023-02-25T04:10:44.322Z,69.92
2023-02-25T04:13:12.664Z,69.10
2023-02-25T04:15:39.599Z,69.43
2023-02-25T04:18:06.904Z,69.27
2023-02-25T04:20:34.155Z,68.52
2023-02-25T04:23:01.791Z,68.30
2023-02-25T04:25:28.847Z,69.43
2023-02-25T04:27:55.731Z,68.98
2023-02-25T04:30:22.519Z,68.64
2023-02-25T04:32:49.416Z,68.57
2023-02-25T04:35:16.447Z,68.38
2023-02-25T04:37:44.033Z,68.60
2023-02-25T04:40:17.056Z,68.74
2023-02-25T04:42:44.431Z,68.35
2023-02-25T04:45:12.782Z,67.99
2023-02-25T04:47:39.783Z,68.00
2023-02-25T04:50:08.557Z,68.19
2023-02-25T04:52:36.042Z,67.97
2023-02-25T04:55:03.844Z,68.99
2023-02-25T04:57:30.702Z,68.74
2023-02-25T04:59:57.499Z,69.31
2023-02-25T05:02:24.315Z,68.53
2023-02-25T05:04:51.135Z,69.22
2023-02-25T05:07:18.014Z,68.41
2023-02-25T05:09:44.884Z,68.12
2023-02-25T05:12:11.774Z,69.47
2023-02-25T05:14:38.558Z,69.16
2023-02-25T05:17:05.372Z,68.60
2023-02-25T05:19:32.566Z,68.14
2023-02-25T05:21:59.394Z,68.74
2023-02-25T05:24:26.273Z,68.89
2023-02-25T05:26:53.190Z,68.62
2023-02-25T05:29:20.713Z,68.51
2023-02-25T05:31:47.846Z,68.81
2023-02-25T05:34:17.310Z,68.82
2023-02-25T05:36:44.194Z,68.81
2023-02-25T05:39:13.516Z,69.09
2023-02-25T05:41:40.564Z,68.66
2023-02-25T05:44:07.947Z,68.20
2023-02-25T05:46:34.874Z,68.67
2023-02-25T05:49:01.930Z,68.34
2023-02-25T05:51:28.792Z,69.00
2023-02-25T05:53:57.309Z,68.85
2023-02-25T05:56:26.278Z,68.58
2023-02-25T05:58:54.665Z,68.56
2023-02-25T06:01:27.542Z,68.73
2023-02-25T06:03:58.321Z,68.02
2023-02-25T06:06:29.585Z,67.95
2023-02-25T06:08:56.668Z,68.29
2023-02-25T06:11:27.536Z,68.71
2023-02-25T06:13:56.122Z,69.39
2023-02-25T06:16:25.782Z,68.07
2023-02-25T06:18:53.221Z,67.75
2023-02-25T06:21:20.218Z,67.11
2023-02-25T06:23:50.047Z,66.83
2023-02-25T06:26:16.943Z,66.75
2023-02-25T06:28:43.909Z,66.44
2023-02-25T06:31:14.530Z,65.96
2023-02-25T06:33:41.460Z,66.22
2023-02-25T06:36:08.938Z,65.01
2023-02-25T06:38:36.332Z,64.25
2023-02-25T06:41:15.410Z,64.30
2023-02-25T06:43:42.755Z,64.22
2023-02-25T06:46:13.885Z,64.50
2023-02-25T06:48:41.090Z,63.99
2023-02-25T06:51:09.578Z,63.87
2023-02-25T06:53:42.361Z,63.62
2023-02-25T06:56:12.608Z,62.87
2023-02-25T06:58:39.963Z,62.61
2023-02-25T07:01:11.682Z,62.42
2023-02-25T07:03:38.557Z,62.07
2023-02-25T07:06:06.179Z,61.32
2023-02-25T07:08:33.452Z,61.19
2023-02-25T07:11:18.609Z,62.15
2023-02-25T07:13:49.601Z,60.89
2023-02-25T07:16:17.407Z,61.40
2023-02-25T07:18:45.043Z,61.53
2023-02-25T07:21:12.938Z,60.70
2023-02-25T07:23:41.417Z,61.04
2023-02-25T07:26:12.162Z,61.23
2023-02-25T07:28:39.782Z,61.69
2023-02-25T07:31:17.312Z,61.39
2023-02-25T07:33:44.715Z,61.86
2023-02-25T07:36:12.972Z,61.40
2023-02-25T07:38:40.427Z,61.44
2023-02-25T07:41:13.804Z,61.14
2023-02-25T07:43:41.604Z,60.88
2023-02-25T07:46:09.529Z,60.98
2023-02-25T07:48:37.080Z,60.90
2023-02-25T07:51:18.542Z,59.74
2023-02-25T07:53:47.498Z,59.00
2023-02-25T07:56:15.752Z,60.09
2023-02-25T07:58:43.023Z,58.50
2023-02-25T08:01:18.964Z,57.21
2023-02-25T08:03:49.151Z,59.25
2023-02-25T08:06:15.951Z,58.43
2023-02-25T08:08:43.815Z,57.14
2023-02-25T08:11:13.708Z,55.64
2023-02-25T08:13:42.073Z,56.00
2023-02-25T08:16:13.200Z,56.04
2023-02-25T08:18:43.750Z,56.72
2023-02-25T08:21:13.269Z,53.89
2023-02-25T08:23:40.445Z,52.78
2023-02-25T08:26:09.580Z,52.89
2023-02-25T08:28:37.440Z,51.60
2023-02-25T08:31:07.998Z,50.34
2023-02-25T08:33:35.042Z,50.90
2023-02-25T08:36:31.235Z,50.72
2023-02-25T08:39:00.039Z,49.69
2023-02-25T08:41:28.536Z,45.74
2023-02-25T08:43:57.221Z,47.90
2023-02-25T08:46:27.111Z,48.25
2023-02-25T08:48:55.168Z,46.89
2023-02-25T08:51:33.771Z,46.09
2023-02-25T08:54:11.906Z,46.75
2023-02-25T08:56:44.238Z,45.95
2023-02-25T08:59:14.223Z,47.21
2023-02-25T09:01:48.921Z,48.83
2023-02-25T09:04:19.681Z,49.53
2023-02-25T09:06:49.542Z,48.82
2023-02-25T09:09:19.009Z,48.36
2023-02-25T09:11:48.050Z,48.23
2023-02-25T09:14:15.474Z,47.70
2023-02-25T09:16:42.443Z,47.02
2023-02-25T09:19:10.832Z,47.75
2023-02-25T09:21:40.318Z,49.33
2023-02-25T09:24:08.612Z,47.23
2023-02-25T09:26:35.865Z,46.45
2023-02-25T09:29:04.986Z,45.05
2023-02-25T09:31:33.636Z,45.94
2023-02-25T09:34:04.524Z,44.34
2023-02-25T09:36:33.701Z,45.37
2023-02-25T09:39:00.861Z,45.65
2023-02-25T09:41:46.129Z,45.76
2023-02-25T09:44:24.107Z,46.61
2023-02-25T09:47:12.042Z,46.77
2023-02-25T09:49:46.847Z,46.36
2023-02-25T09:52:24.204Z,48.20
2023-02-25T09:55:18.423Z,46.77
2023-02-25T09:58:14.021Z,45.94
2023-02-25T10:00:55.288Z,45.72
2023-02-25T10:03:59.515Z,45.33
2023-02-25T10:06:39.453Z,44.58
2023-02-25T10:09:31.375Z,43.68
2023-02-25T10:12:24.041Z,43.57
2023-02-25T10:15:08.260Z,43.92
2023-02-25T10:17:59.351Z,44.24
2023-02-25T10:20:49.788Z,42.75
2023-02-25T10:23:39.315Z,42.67
2023-02-25T10:26:10.403Z,43.64
2023-02-25T10:28:40.702Z,43.45
2023-02-25T10:31:14.667Z,42.52
2023-02-25T10:33:44.793Z,40.38
2023-02-25T10:36:18.980Z,40.19
2023-02-25T10:38:55.082Z,40.54
2023-02-25T10:41:26.497Z,40.19
2023-02-25T10:43:55.061Z,41.35
2023-02-25T10:46:33.234Z,43.04
2023-02-25T10:49:16.262Z,43.81
2023-02-25T10:52:15.096Z,44.61
2023-02-25T10:54:53.489Z,45.31
2023-02-25T10:57:41.325Z,43.26
2023-02-25T11:00:33.953Z,42.95
2023-02-25T11:03:02.017Z,43.91
2023-02-25T11:05:43.651Z,43.32
2023-02-25T11:08:33.093Z,41.08
2023-02-25T11:11:32.140Z,42.17
2023-02-25T11:14:06.715Z,40.36
2023-02-25T11:16:37.805Z,37.77
2023-02-25T11:19:29.574Z,37.52
2023-02-25T11:21:59.108Z,37.43
2023-02-25T11:24:34.315Z,37.03
2023-02-25T11:27:04.876Z,37.53
2023-02-25T11:29:39.245Z,37.43
2023-02-25T11:32:33.726Z,36.41
2023-02-25T11:35:11.268Z,37.02
2023-02-25T11:37:48.204Z,39.36
2023-02-25T11:40:27.601Z,39.90
2023-02-25T11:43:05.078Z,40.39
2023-02-25T11:45:36.020Z,41.25
2023-02-25T11:48:05.702Z,42.18
2023-02-25T11:51:00.514Z,42.33
2023-02-25T11:53:48.149Z,41.75
2023-02-25T11:56:39.478Z,41.74
2023-02-25T11:59:33.877Z,41.57
2023-02-25T12:02:20.906Z,39.59
2023-02-25T12:05:16.811Z,38.09
2023-02-25T12:07:59.913Z,34.15
2023-02-25T12:11:12.989Z,33.35
2023-02-25T12:14:40.111Z,37.01
2023-02-25T12:17:51.035Z,37.94
2023-02-25T12:20:50.275Z,38.31
2023-02-25T12:24:02.574Z,38.09
2023-02-25T12:26:41.293Z,37.66
2023-02-25T12:29:35.122Z,37.21
2023-02-25T12:32:34.775Z,39.00
2023-02-25T12:35:26.569Z,38.23
2023-02-25T12:38:36.056Z,35.61
2023-02-25T12:41:17.712Z,34.12
2023-02-25T12:44:34.575Z,32.68
2023-02-25T12:47:07.168Z,34.25
2023-02-25T12:50:30.061Z,34.63
2023-02-25T12:53:43.826Z,36.63
2023-02-25T12:56:16.821Z,38.75
2023-02-25T12:59:04.618Z,39.42
2023-02-25T13:02:01.961Z,39.13
2023-02-25T13:05:08.285Z,41.00
2023-02-25T13:07:42.394Z,41.42
2023-02-25T13:10:31.306Z,41.73
2023-02-25T13:13:50.620Z,42.24
2023-02-25T13:16:34.654Z,42.63
2023-02-25T13:19:36.880Z,43.27
2023-02-25T13:22:12.499Z,43.33
2023-02-25T13:25:25.467Z,43.52
2023-02-25T13:28:29.774Z,43.79
2023-02-25T13:31:08.338Z,44.39
2023-02-25T13:34:18.128Z,44.31
2023-02-25T13:36:58.355Z,43.17
2023-02-25T13:39:53.241Z,43.62
2023-02-25T13:42:54.426Z,43.13
2023-02-25T13:45:34.085Z,44.17
2023-02-25T13:48:26.968Z,44.19
2023-02-25T13:51:13.951Z,44.88
2023-02-25T13:54:13.956Z,45.36
2023-02-25T13:57:14.702Z,44.69
2023-02-25T14:00:24.022Z,45.79
2023-02-25T14:03:15.236Z,45.38
2023-02-25T14:06:15.009Z,44.91
2023-02-25T14:09:06.529Z,44.90
2023-02-25T14:12:11.601Z,45.54
2023-02-25T14:15:08.325Z,45.10
2023-02-25T14:18:15.126Z,44.72
2023-02-25T14:21:18.258Z,46.50
2023-02-25T14:23:57.285Z,44.63
2023-02-25T14:26:37.546Z,44.47
2023-02-25T14:30:13.755Z,44.08
2023-02-25T14:32:53.510Z,44.20
2023-02-25T14:35:42.143Z,43.98
2023-02-25T14:38:46.579Z,44.02
2023-02-25T14:41:52.472Z,44.97
2023-02-25T14:44:44.114Z,44.39
2023-02-25T14:47:21.633Z,45.57
2023-02-25T14:50:16.216Z,44.58
2023-02-25T14:53:25.743Z,44.55
2023-02-25T14:56:20.910Z,44.66
2023-02-25T14:59:18.435Z,44.45
2023-02-25T15:02:09.770Z,45.74
2023-02-25T15:04:56.443Z,45.90
2023-02-25T15:08:03.829Z,46.21
2023-02-25T15:11:11.803Z,45.69
2023-02-25T15:13:59.836Z,45.81
2023-02-25T15:16:51.348Z,46.61
2023-02-25T15:19:37.856Z,46.14
2023-02-25T15:22:24.859Z,45.77
2023-02-25T15:24:55.337Z,46.00
2023-02-25T15:27:37.125Z,46.01
2023-02-25T15:30:14.351Z,44.03
2023-02-25T15:32:55.802Z,44.57
2023-02-25T15:35:50.016Z,45.57
2023-02-25T15:38:39.219Z,46.25
2023-02-25T15:41:29.360Z,46.52
2023-02-25T15:44:12.525Z,46.72
2023-02-25T15:46:44.745Z,46.92
2023-02-25T15:49:28.413Z,47.07
2023-02-25T15:52:04.188Z,47.03
2023-02-25T15:54:31.308Z,47.36
2023-02-25T15:57:22.419Z,47.48
2023-02-25T15:59:57.450Z,48.23
2023-02-25T16:02:29.940Z,48.75
2023-02-25T16:05:19.704Z,48.50
2023-02-25T16:08:02.081Z,48.50
2023-02-25T16:10:51.420Z,49.40
2023-02-25T16:13:37.520Z,49.13
2023-02-25T16:16:05.867Z,49.16
2023-02-25T16:18:45.451Z,49.40
2023-02-25T16:21:30.447Z,49.63
2023-02-25T16:24:00.245Z,49.16
2023-02-25T16:26:45.529Z,49.64
2023-02-25T16:29:29.542Z,48.37
2023-02-25T16:32:05.118Z,48.75
2023-02-25T16:35:01.562Z,53.81
2023-02-25T16:37:46.313Z,56.66
2023-02-25T16:40:30.901Z,59.74
2023-02-25T16:42:59.249Z,60.17
2023-02-25T16:45:34.180Z,60.87
2023-02-25T16:48:08.396Z,60.84
2023-02-25T16:50:36.409Z,61.95
2023-02-25T16:53:04.102Z,62.04
2023-02-25T16:55:40.489Z,62.52
2023-02-25T16:58:19.446Z,62.72
2023-02-25T17:01:03.838Z,62.29
2023-02-25T17:03:46.480Z,62.92
2023-02-25T17:06:20.472Z,62.58
2023-02-25T17:08:50.494Z,62.36
2023-02-25T17:11:23.572Z,63.34
2023-02-25T17:13:55.689Z,63.45
2023-02-25T17:16:34.975Z,63.39
2023-02-25T17:19:06.168Z,63.30
2023-02-25T17:21:39.768Z,64.44
2023-02-25T17:24:13.460Z,64.35
2023-02-25T17:26:46.325Z,64.85
2023-02-25T17:29:16.722Z,64.79
2023-02-25T17:31:54.012Z,64.32
2023-02-25T17:34:33.185Z,64.13
2023-02-25T17:37:06.888Z,64.58
2023-02-25T17:39:33.908Z,64.23
2023-02-25T17:42:00.965Z,64.42
2023-02-25T17:44:37.591Z,64.38
2023-02-25T17:47:07.988Z,64.38
2023-02-25T17:49:36.741Z,64.41
2023-02-25T17:52:08.019Z,63.94
2023-02-25T17:54:37.478Z,63.77
2023-02-25T17:57:20.354Z,64.73
2023-02-25T18:00:22.835Z,65.14
2023-02-25T18:03:21.682Z,64.77
2023-02-25T18:05:59.175Z,64.62
2023-02-25T18:08:31.484Z,64.69
2023-02-25T18:11:19.064Z,65.04
2023-02-25T18:13:45.960Z,64.68
2023-02-25T18:16:44.807Z,64.81
2023-02-25T18:19:40.409Z,65.78
2023-02-25T18:22:43.201Z,65.14
2023-02-25T18:25:30.435Z,65.02
2023-02-25T18:27:57.330Z,64.75
2023-02-25T18:30:27.589Z,64.70
2023-02-25T18:32:54.826Z,64.41
2023-02-25T18:35:22.179Z,64.44
2023-02-25T18:37:52.639Z,64.33
2023-02-25T18:40:38.097Z,64.52
2023-02-25T18:43:05.878Z,65.86
2023-02-25T18:45:34.261Z,65.43
2023-02-25T18:48:01.707Z,65.56
2023-02-25T18:50:32.984Z,65.44
2023-02-25T18:53:01.128Z,64.88
2023-02-25T18:55:31.564Z,65.14
2023-02-25T18:57:58.900Z,65.32
2023-02-25T19:00:27.379Z,65.57
2023-02-25T19:02:59.509Z,65.83
2023-02-25T19:05:27.735Z,65.19
2023-02-25T19:07:55.140Z,65.91
2023-02-25T19:10:34.117Z,66.34
2023-02-25T19:13:06.438Z,65.10
2023-02-25T19:15:34.237Z,65.13
2023-02-25T19:18:01.258Z,64.71
2023-02-25T19:20:28.256Z,65.58
2023-02-25T19:22:55.118Z,65.63
2023-02-25T19:25:28.968Z,65.75
2023-02-25T19:27:57.424Z,65.67
2023-02-25T19:30:31.011Z,66.73
2023-02-25T19:33:02.820Z,67.81
2023-02-25T19:35:35.278Z,66.42
2023-02-25T19:38:03.329Z,65.95
2023-02-25T19:40:31.094Z,65.93
2023-02-25T19:42:58.574Z,65.61
2023-02-25T19:45:26.665Z,66.03
2023-02-25T19:47:55.137Z,66.24
2023-02-25T19:50:25.137Z,66.23
2023-02-25T19:52:54.453Z,65.94
2023-02-25T19:55:22.518Z,65.69
2023-02-25T19:57:49.363Z,66.57
2023-02-25T20:00:21.167Z,66.15
2023-02-25T20:02:48.277Z,66.67
2023-02-25T20:05:15.991Z,66.23
2023-02-25T20:07:43.235Z,66.61
2023-02-25T20:10:12.981Z,66.45
2023-02-25T20:12:42.216Z,66.39
2023-02-25T20:15:11.223Z,67.35
2023-02-25T20:17:43.075Z,66.65
2023-02-25T20:20:12.639Z,66.79
2023-02-25T20:22:40.414Z,66.82
2023-02-25T20:25:10.051Z,66.65
2023-02-25T20:27:39.608Z,66.50
2023-02-25T20:30:08.002Z,65.85
2023-02-25T20:32:35.179Z,65.43
2023-02-25T20:35:02.710Z,65.53
2023-02-25T20:37:35.548Z,65.45
2023-02-25T20:40:03.671Z,65.13
2023-02-25T20:42:31.585Z,65.17
2023-02-25T20:44:59.704Z,65.21
2023-02-25T20:47:35.103Z,64.64
2023-02-25T20:50:04.765Z,65.39
2023-02-25T20:52:33.618Z,65.45
2023-02-25T20:55:00.736Z,65.12
2023-02-25T20:57:27.830Z,65.28
2023-02-25T20:59:54.965Z,65.12
2023-02-25T21:02:21.967Z,65.50
2023-02-25T21:04:50.377Z,65.41
2023-02-25T21:07:17.390Z,65.74
2023-02-25T21:09:44.317Z,65.88
2023-02-25T21:12:11.172Z,65.59
2023-02-25T21:14:37.999Z,65.68
2023-02-25T21:17:09.395Z,66.65
2023-02-25T21:19:38.501Z,66.14
2023-02-25T21:22:06.746Z,66.11
2023-02-25T21:24:34.573Z,66.46
2023-02-25T21:27:03.100Z,65.49
2023-02-25T21:29:29.963Z,65.91
2023-02-25T21:31:57.075Z,66.46
2023-02-25T21:34:23.869Z,65.91
2023-02-25T21:36:51.123Z,65.70
2023-02-25T21:39:18.281Z,65.55
2023-02-25T21:41:45.130Z,65.25
2023-02-25T21:44:13.114Z,65.03
2023-02-25T21:46:41.543Z,64.42
2023-02-25T21:49:10.472Z,64.49
2023-02-25T21:51:37.585Z,64.25
2023-02-25T21:54:04.598Z,64.27
2023-02-25T21:56:31.435Z,63.99
2023-02-25T21:59:00.923Z,64.38
2023-02-25T22:01:34.569Z,64.12
2023-02-25T22:04:02.316Z,64.58
2023-02-25T22:06:29.311Z,64.12
2023-02-25T22:08:58.073Z,63.91
2023-02-25T22:11:34.147Z,63.66
2023-02-25T22:14:03.510Z,63.87
2023-02-25T22:16:30.332Z,64.30
2023-02-25T22:18:57.953Z,64.67
2023-02-25T22:21:28.940Z,64.61
2023-02-25T22:23:59.307Z,65.28
2023-02-25T22:26:29.996Z,64.90
2023-02-25T22:29:00.553Z,64.51
2023-02-25T22:31:28.426Z,64.86
2023-02-25T22:33:57.242Z,64.71
2023-02-25T22:36:25.255Z,64.99
2023-02-25T22:38:52.472Z,64.97
2023-02-25T22:41:26.689Z,65.12
2023-02-25T22:43:54.512Z,65.15
2023-02-25T22:46:28.629Z,65.27
2023-02-25T22:48:56.160Z,64.82
2023-02-25T22:51:28.364Z,64.55
2023-02-25T22:53:56.560Z,64.39
2023-02-25T22:56:24.408Z,64.39
2023-02-25T22:58:52.212Z,64.08
2023-02-25T23:01:22.009Z,64.03
2023-02-25T23:03:50.793Z,63.70
2023-02-25T23:06:20.702Z,63.55
2023-02-25T23:08:48.077Z,63.44
2023-02-25T23:11:30.502Z,63.80
2023-02-25T23:14:00.570Z,64.50
2023-02-25T23:16:40.398Z,63.94
2023-02-25T23:19:09.750Z,63.88
2023-02-25T23:21:38.532Z,63.74
2023-02-25T23:24:07.617Z,64.13
2023-02-25T23:26:40.334Z,63.80
2023-02-25T23:29:09.821Z,63.64
2023-02-25T23:31:41.625Z,63.77
2023-02-25T23:34:12.944Z,63.36
2023-02-25T23:36:42.225Z,63.83
2023-02-25T23:39:10.702Z,63.89
2023-02-25T23:41:38.600Z,64.43
2023-02-25T23:44:08.396Z,64.04
2023-02-25T23:46:36.437Z,63.72
2023-02-25T23:49:06.780Z,63.88
2023-02-25T23:51:34.846Z,63.85
2023-02-25T23:54:05.731Z,64.24
2023-02-25T23:56:33.667Z,63.96
2023-02-25T23:59:00.734Z,64.04
